KRUQ

Mid-Carolina Regional Airport

Salisbury, North Carolina, USA
METAR KRUQ 242105Z AUTO 07004KT 10SM BKN017 OVC025 22/19 A3022 RMK AO2 T02160185
Observed Flight Rules
Sep-24 @ 21:05 UTC (31 minutes ago) Marginal Visual Flight Rules
Wind Visibility Clouds
70° at 4 knots 10 miles
  • Broken at 1,700' AGL
  • Overcast at 2,500' AGL
Temperatures Readings
Current 22°C / 72°F
Dewpoint 19°C / 66°F
Humidity 83%
Altimeter 30.22" Hg
Pressure 1023 hPa
Elevation 236
METAR KRUQ 242105Z AUTO 07004KT 10SM BKN017 OVC025 22/19 A3022 RMK AO2 T02160185
Observed Flight Rules
Sep-24 @ 21:05 UTC
(31 minutes ago)
MVFR
Wind Visibility
70° at 4 knots 10 miles
Clouds
  • Broken at 1,700' AGL
  • Overcast at 2,500' AGL
Temperature Dewpoint
22°C / 72°F 19°C / 66°F
Humidity Altimeter Pressure
83% 30.22" Hg 1023 hPa